Time;durP1;ratioP1;P1;durP2;ratioP2;P2;SDS_P1;SDS_P2;PMS_P1;PMS_P2;Temp;Humidity;BMP_temperature;BMP_pressure;BME280_temperature;BME280_humidity;BME280_pressure;Samples;Min_cycle;Max_cycle;Signal;HPM_P1;HPM_P2
2023/07/17 00:01:31;;;;;;;;;;;;;;;25.42;70.27;97189.00;622440;228;65050;-60
2023/07/17 00:03:59;;;;;;;;;;;;;;;25.41;70.31;97186.62;622430;228;67502;-59
2023/07/17 00:06:26;;;;;;;;;;;;;;;25.40;69.95;97185.83;622462;228;68570;-59
2023/07/17 00:08:54;;;;;;;;;;;;;;;25.39;69.94;97189.59;622452;228;65041;-60
2023/07/17 00:11:21;;;;;;;;;;;;;;;25.39;71.03;97180.73;622444;228;68462;-60
2023/07/17 00:13:49;;;;;;;;;;;;;;;25.40;71.53;97183.13;624027;227;66323;-60
2023/07/17 00:16:16;;;;;;;;;;;;;;;25.39;72.37;97186.90;625154;227;63842;-60
2023/07/17 00:18:44;;;;;;;;;;;;;;;25.40;72.51;97187.69;625187;227;68496;-60
2023/07/17 00:21:11;;;;;;;;;;;;;;;25.37;72.54;97186.42;625117;227;68728;-60
2023/07/17 00:23:39;;;;;;;;;;;;;;;25.37;72.79;97183.73;625141;227;64987;-60
2023/07/17 00:26:06;;;;;;;;;;;;;;;25.36;72.47;97182.11;625097;227;68432;-60
2023/07/17 00:28:33;;;;;;;;;;;;;;;25.36;72.33;97184.01;625092;227;68795;-60
2023/07/17 00:31:01;;;;;;;;;;;;;;;25.34;72.36;97178.91;625145;227;62898;-59
2023/07/17 00:33:29;;;;;;;;;;;;;;;25.34;72.63;97186.98;625137;227;66901;-60
2023/07/17 00:35:56;;;;;;;;;;;;;;;25.35;71.84;97182.42;625103;227;66564;-60
2023/07/17 00:38:25;;;;;;;;;;;;;;;25.33;72.35;97182.70;625138;227;63628;-62
2023/07/17 00:40:53;;;;;;;;;;;;;;;25.34;72.14;97184.29;625082;227;66316;-62
2023/07/17 00:43:20;;;;;;;;;;;;;;;25.33;72.17;97185.39;625171;227;66387;-62
2023/07/17 00:45:48;;;;;;;;;;;;;;;25.33;72.30;97182.70;625122;227;64864;-62
2023/07/17 00:48:15;;;;;;;;;;;;;;;25.33;71.91;97182.70;625147;227;69352;-62
2023/07/17 00:50:45;;;;;;;;;;;;;;;25.34;72.84;97194.27;625120;227;67472;-62
2023/07/17 00:53:15;;;;;;;;;;;;;;;25.33;72.58;97195.36;625096;227;65768;-62
2023/07/17 00:55:42;;;;;;;;;;;;;;;25.32;72.72;97191.88;625089;227;66669;-63
2023/07/17 00:58:10;;;;;;;;;;;;;;;25.32;72.54;97191.06;625143;227;66224;-63
2023/07/17 01:00:37;;;;;;;;;;;;;;;25.32;72.40;97196.44;625134;227;62764;-63
2023/07/17 01:03:05;;;;;;;;;;;;;;;25.30;72.08;97188.68;625134;227;66306;-63
2023/07/17 01:05:34;;;;;;;;;;;;;;;25.30;72.68;97191.38;625119;227;68646;-63
2023/07/17 01:08:01;;;;;;;;;;;;;;;25.30;72.50;97191.38;625104;227;65018;-62
2023/07/17 01:10:31;;;;;;;;;;;;;;;25.30;72.60;97187.89;625157;226;45941;-62
2023/07/17 01:12:58;;;;;;;;;;;;;;;25.30;72.41;97185.20;624746;226;68475;-62
2023/07/17 01:15:26;;;;;;;;;;;;;;;25.29;72.97;97187.09;623720;227;62567;-60
2023/07/17 01:17:54;;;;;;;;;;;;;;;25.29;72.64;97192.48;623703;227;69420;-60
2023/07/17 01:20:22;;;;;;;;;;;;;;;25.30;72.57;97185.98;623638;227;66895;-60
2023/07/17 01:23:05;;;;;;;;;;;;;;;25.28;72.83;97190.86;623754;227;62734;-60
2023/07/17 01:25:33;;;;;;;;;;;;;;;25.29;72.80;97184.41;623744;227;68829;-60
2023/07/17 01:28:02;;;;;;;;;;;;;;;25.28;72.83;97182.78;623678;227;69021;-60
2023/07/17 01:30:29;;;;;;;;;;;;;;;25.27;72.89;97181.20;623711;227;62734;-60
2023/07/17 01:32:57;;;;;;;;;;;;;;;25.27;72.90;97181.20;623692;227;68780;-60
2023/07/17 01:35:25;;;;;;;;;;;;;;;25.28;72.95;97182.78;623682;225;66499;-63
2023/07/17 01:37:52;;;;;;;;;;;;;;;25.27;72.50;97181.20;623765;227;63734;-63
2023/07/17 01:40:20;;;;;;;;;;;;;;;25.28;72.89;97188.17;623721;227;68588;-63
2023/07/17 01:42:47;;;;;;;;;;;;;;;25.28;72.25;97185.48;622960;224;68501;-63
2023/07/17 01:45:15;;;;;;;;;;;;;;;25.27;72.27;97177.72;622256;227;65178;-63
2023/07/17 01:47:43;;;;;;;;;;;;;;;25.27;72.46;97173.14;623694;227;68836;-63
2023/07/17 01:50:10;;;;;;;;;;;;;;;25.27;72.53;97178.52;623560;227;68749;-63
2023/07/17 01:52:38;;;;;;;;;;;;;;;25.26;72.88;97179.59;623710;227;65823;-63
2023/07/17 01:55:05;;;;;;;;;;;;;;;25.27;72.76;97177.72;623713;227;68641;-63
2023/07/17 01:57:33;;;;;;;;;;;;;;;25.26;72.96;97182.28;623716;227;69300;-63
2023/07/17 02:00:02;;;;;;;;;;;;;;;25.27;72.61;97186.58;623635;227;62562;-60
2023/07/17 02:02:31;;;;;;;;;;;;;;;25.27;72.79;97183.10;623593;226;45815;-60
2023/07/17 02:04:59;;;;;;;;;;;;;;;25.26;72.78;97193.03;623683;227;69552;-60
2023/07/17 02:07:27;;;;;;;;;;;;;;;25.28;73.89;97188.17;623692;227;63022;-60
2023/07/17 02:09:54;;;;;;;;;;;;;;;25.28;74.29;97184.69;623673;227;66422;-60
2023/07/17 02:12:22;;;;;;;;;;;;;;;25.28;74.77;97187.38;623643;227;66569;-61
2023/07/17 02:14:49;;;;;;;;;;;;;;;25.27;73.65;97186.58;625050;227;65141;-60
2023/07/17 02:17:17;;;;;;;;;;;;;;;25.27;73.73;97183.89;625145;227;69265;-60
2023/07/17 02:19:44;;;;;;;;;;;;;;;25.26;73.84;97193.03;625077;227;68657;-60
2023/07/17 02:22:12;;;;;;;;;;;;;;;25.26;74.12;97193.03;625105;227;64838;-60
2023/07/17 02:24:41;;;;;;;;;;;;;;;25.27;73.89;97193.86;621598;227;68848;-60
2023/07/17 02:27:08;;;;;;;;;;;;;;;25.27;74.04;97191.97;615808;227;69666;-60
2023/07/17 02:29:36;;;;;;;;;;;;;;;25.26;74.48;97193.03;625170;227;65170;-60
2023/07/17 02:32:04;;;;;;;;;;;;;;;25.25;74.33;97186.86;625091;227;66388;-60
2023/07/17 02:34:32;;;;;;;;;;;;;;;25.25;73.50;97191.45;625017;227;69614;-60
2023/07/17 02:36:59;;;;;;;;;;;;;;;25.24;73.54;97201.42;625111;227;62478;-60
2023/07/17 02:39:27;;;;;;;;;;;;;;;25.24;73.69;97196.04;625087;227;67384;-60
2023/07/17 02:41:54;;;;;;;;;;;;;;;25.24;73.78;97196.04;625124;227;68485;-60
2023/07/17 02:44:22;;;;;;;;;;;;;;;25.24;73.50;97201.42;625102;227;62661;-60
2023/07/17 02:46:49;;;;;;;;;;;;;;;25.24;73.19;97200.62;625118;227;66487;-60
2023/07/17 02:49:17;;;;;;;;;;;;;;;25.24;73.59;97193.34;625085;227;66610;-60
2023/07/17 02:51:44;;;;;;;;;;;;;;;25.24;73.60;97200.62;625125;227;62739;-60
2023/07/17 02:54:12;;;;;;;;;;;;;;;25.23;73.26;97199.01;625101;227;66122;-60
2023/07/17 02:56:40;;;;;;;;;;;;;;;25.24;73.81;97204.11;625090;227;68699;-60
2023/07/17 02:59:07;;;;;;;;;;;;;;;25.23;73.22;97199.80;625071;227;65179;-60
2023/07/17 03:01:35;;;;;;;;;;;;;;;25.24;74.06;97200.62;625100;227;69088;-60
2023/07/17 03:04:03;;;;;;;;;;;;;;;25.23;73.95;97205.18;625111;227;68634;-60
2023/07/17 03:06:30;;;;;;;;;;;;;;;25.24;73.83;97200.62;625138;227;62703;-60
2023/07/17 03:08:58;;;;;;;;;;;;;;;25.24;74.52;97206.80;625104;227;68630;-60
2023/07/17 03:11:25;;;;;;;;;;;;;;;25.23;74.09;97199.01;625153;227;66501;-60
2023/07/17 03:13:53;;;;;;;;;;;;;;;25.23;73.59;97207.87;623789;227;63825;-60
2023/07/17 03:16:20;;;;;;;;;;;;;;;25.23;73.92;97209.77;623071;227;67279;-60
2023/07/17 03:18:48;;;;;;;;;;;;;;;25.23;74.33;97204.39;623047;227;68686;-60
2023/07/17 03:21:16;;;;;;;;;;;;;;;25.23;74.06;97205.18;622998;227;64930;-60
2023/07/17 03:23:44;;;;;;;;;;;;;;;25.22;74.11;97200.91;623043;227;69167;-60
2023/07/17 03:26:11;;;;;;;;;;;;;;;25.23;74.15;97209.77;623016;227;66642;-60
2023/07/17 03:28:39;;;;;;;;;;;;;;;25.22;74.18;97203.59;623078;227;65036;-62
2023/07/17 03:31:10;;;;;;;;;;;;;;;25.22;73.63;97202.80;623040;227;69780;-63
2023/07/17 03:33:37;;;;;;;;;;;;;;;25.21;72.69;97206.59;623050;227;68899;-63
2023/07/17 03:36:06;;;;;;;;;;;;;;;25.22;72.85;97205.48;623027;227;62386;-63
2023/07/17 03:38:34;;;;;;;;;;;;;;;25.21;73.50;97211.97;623053;227;66301;-63
2023/07/17 03:41:01;;;;;;;;;;;;;;;25.22;73.51;97218.94;623044;227;68614;-63
2023/07/17 03:43:29;;;;;;;;;;;;;;;25.20;72.28;97210.36;623074;227;62728;-63
2023/07/17 03:45:57;;;;;;;;;;;;;;;25.19;71.05;97209.56;623040;227;69271;-63
2023/07/17 03:48:24;;;;;;;;;;;;;;;25.20;71.74;97207.67;622968;227;68894;-62
2023/07/17 03:50:52;;;;;;;;;;;;;;;25.21;72.02;97218.14;623056;227;62995;-63
2023/07/17 03:53:20;;;;;;;;;;;;;;;25.19;71.93;97214.15;623061;227;66624;-63
2023/07/17 03:55:48;;;;;;;;;;;;;;;25.20;72.28;97215.73;623034;227;69191;-63
2023/07/17 03:58:15;;;;;;;;;;;;;;;25.19;71.42;97220.32;623065;227;64950;-60
2023/07/17 04:00:42;;;;;;;;;;;;;;;25.19;72.00;97219.53;623009;225;66338;-60
2023/07/17 04:03:10;;;;;;;;;;;;;;;25.20;72.12;97223.80;623061;227;66152;-60
2023/07/17 04:05:39;;;;;;;;;;;;;;;25.18;72.04;97216.05;623152;226;44500;-60
2023/07/17 04:08:07;;;;;;;;;;;;;;;25.18;71.74;97220.60;623062;227;68279;-60
2023/07/17 04:10:35;;;;;;;;;;;;;;;25.18;72.08;97218.73;623082;227;68567;-60
2023/07/17 04:13:03;;;;;;;;;;;;;;;25.18;72.12;97216.05;623585;227;65765;-60
2023/07/17 04:15:31;;;;;;;;;;;;;;;25.19;73.04;97220.32;625155;227;69301;-60
2023/07/17 04:17:59;;;;;;;;;;;;;;;25.18;71.49;97221.42;625151;227;68236;-60
2023/07/17 04:20:26;;;;;;;;;;;;;;;25.18;72.41;97213.36;625159;227;64934;-60
2023/07/17 04:22:54;;;;;;;;;;;;;;;25.18;72.28;97216.05;625146;227;65867;-60
2023/07/17 04:25:22;;;;;;;;;;;;;;;25.19;72.48;97214.15;625118;227;68422;-60
2023/07/17 04:27:49;;;;;;;;;;;;;;;25.19;71.96;97214.15;625128;227;64863;-60
2023/07/17 04:30:17;;;;;;;;;;;;;;;25.19;71.98;97222.22;625141;227;69359;-60
2023/07/17 04:32:45;;;;;;;;;;;;;;;25.19;72.35;97214.94;625151;227;69479;-60
2023/07/17 04:35:13;;;;;;;;;;;;;;;25.19;70.74;97214.15;625146;227;62751;-60
2023/07/17 04:37:41;;;;;;;;;;;;;;;25.20;69.15;97221.91;625159;227;69273;-60
2023/07/17 04:40:09;;;;;;;;;;;;;;;25.20;69.23;97218.42;625152;227;68645;-60
2023/07/17 04:42:38;;;;;;;;;;;;;;;25.21;69.00;97220.05;625146;227;62828;-60
2023/07/17 04:45:07;;;;;;;;;;;;;;;25.21;68.94;97217.35;625167;227;66186;-59
2023/07/17 04:47:36;;;;;;;;;;;;;;;25.22;68.89;97224.31;625128;227;66788;-59
2023/07/17 04:50:05;;;;;;;;;;;;;;;25.23;68.90;97228.59;625163;227;65759;-60
2023/07/17 04:52:33;;;;;;;;;;;;;;;25.21;67.98;97218.14;625161;227;66161;-59
2023/07/17 04:55:01;;;;;;;;;;;;;;;25.23;68.74;97223.22;625136;227;65870;-59
2023/07/17 04:57:29;;;;;;;;;;;;;;;25.23;68.58;97224.01;625172;227;65452;-60
2023/07/17 04:59:57;;;;;;;;;;;;;;;25.23;67.35;97231.28;625135;227;66074;-60
2023/07/17 05:02:26;;;;;;;;;;;;;;;25.25;67.46;97229.11;625138;227;66722;-59
2023/07/17 05:04:54;;;;;;;;;;;;;;;25.24;66.73;97225.63;620026;227;66478;-60
2023/07/17 05:07:22;;;;;;;;;;;;;;;25.25;66.17;97231.80;625134;227;68746;-59
2023/07/17 05:09:49;;;;;;;;;;;;;;;25.27;65.77;97232.31;625150;227;67304;-60
2023/07/17 05:12:17;;;;;;;;;;;;;;;25.28;65.77;97233.10;625153;227;62933;-59
2023/07/17 05:14:47;;;;;;;;;;;;;;;25.29;65.43;97232.00;625193;226;45514;-60
2023/07/17 05:17:15;;;;;;;;;;;;;;;25.29;65.78;97235.52;625147;227;67333;-60
2023/07/17 05:19:43;;;;;;;;;;;;;;;25.30;65.48;97222.86;625179;224;64873;-60
2023/07/17 05:22:11;;;;;;;;;;;;;;;25.29;65.15;97227.44;625147;227;66956;-60
2023/07/17 05:24:39;;;;;;;;;;;;;;;25.30;65.15;97229.03;625144;227;69101;-60
2023/07/17 05:27:07;;;;;;;;;;;;;;;25.30;65.09;97231.72;625120;227;65136;-60
2023/07/17 05:29:35;;;;;;;;;;;;;;;25.31;65.40;97227.92;625158;227;69124;-60
2023/07/17 05:32:03;;;;;;;;;;;;;;;25.31;65.57;97233.30;625124;227;68445;-60
2023/07/17 05:34:30;;;;;;;;;;;;;;;25.32;65.50;97228.72;625099;227;63826;-60
2023/07/17 05:36:58;;;;;;;;;;;;;;;25.32;65.46;97234.92;625181;227;68915;-60
2023/07/17 05:39:27;;;;;;;;;;;;;;;25.30;65.61;97231.72;625137;227;68575;-60
2023/07/17 05:41:54;;;;;;;;;;;;;;;25.33;65.54;97243.78;625144;227;65089;-60
2023/07/17 05:44:23;;;;;;;;;;;;;;;25.31;65.49;97236.00;625180;227;68685;-60
2023/07/17 05:46:50;;;;;;;;;;;;;;;25.32;65.81;97231.41;625002;227;68528;-63
2023/07/17 05:49:18;;;;;;;;;;;;;;;25.32;65.74;97245.68;625104;227;65090;-63
2023/07/17 05:51:46;;;;;;;;;;;;;;;25.31;65.98;97238.69;624357;227;66297;-67
2023/07/17 05:54:13;;;;;;;;;;;;;;;25.33;66.29;97233.02;620023;227;70125;-64
2023/07/17 05:56:41;;;;;;;;;;;;;;;25.33;66.41;97233.82;625059;227;65066;-61
2023/07/17 05:59:08;;;;;;;;;;;;;;;25.34;67.00;97238.09;624950;227;66177;-63
2023/07/17 06:01:37;;;;;;;;;;;;;;;25.35;66.99;97236.23;624793;227;68697;-64
2023/07/17 06:04:06;;;;;;;;;;;;;;;25.34;67.06;97235.41;625124;226;41729;-62
2023/07/17 06:06:34;;;;;;;;;;;;;;;25.35;67.31;97230.84;625075;227;66757;-63
2023/07/17 06:09:02;;;;;;;;;;;;;;;25.36;67.35;97233.23;625101;227;68515;-64
2023/07/17 06:11:30;;;;;;;;;;;;;;;25.38;67.48;97232.95;625097;227;65102;-64
2023/07/17 06:13:59;;;;;;;;;;;;;;;25.38;67.40;97238.33;624066;226;68792;-63
2023/07/17 06:16:26;;;;;;;;;;;;;;;25.38;67.61;97230.25;623624;227;69030;-63
2023/07/17 06:18:54;;;;;;;;;;;;;;;25.41;67.74;97235.05;622363;227;63019;-63
2023/07/17 06:21:21;;;;;;;;;;;;;;;25.42;67.73;97233.94;616453;230;68788;-60
2023/07/17 06:23:49;;;;;;;;;;;;;;;25.44;67.83;97229.86;616540;230;66622;-65
2023/07/17 06:26:17;;;;;;;;;;;;;;;25.44;68.29;97232.55;616496;230;65027;-63
2023/07/17 06:28:47;;;;;;;;;;;;;;;25.45;68.35;97223.41;616490;227;68793;-64
2023/07/17 06:31:17;;;;;;;;;;;;;;;25.48;68.31;97238.14;616448;230;67615;-64
2023/07/17 06:33:45;;;;;;;;;;;;;;;25.51;68.34;97232.19;616490;230;64817;-63
2023/07/17 06:36:12;;;;;;;;;;;;;;;25.53;68.44;97223.80;616434;230;68358;-63
2023/07/17 06:38:40;;;;;;;;;;;;;;;25.53;68.71;97231.88;616491;230;68746;-63
2023/07/17 06:41:07;;;;;;;;;;;;;;;25.55;68.56;97221.63;616352;230;65030;-61
2023/07/17 06:43:35;;;;;;;;;;;;;;;25.57;68.53;97219.45;616510;230;69024;-62
2023/07/17 06:46:04;;;;;;;;;;;;;;;25.58;68.50;97219.13;616556;230;66702;-62
2023/07/17 06:48:31;;;;;;;;;;;;;;;25.60;68.38;97221.55;616430;230;62990;-63
2023/07/17 06:50:59;;;;;;;;;;;;;;;25.60;68.36;97213.47;616466;230;66625;-63
2023/07/17 06:53:26;;;;;;;;;;;;;;;25.62;68.41;97219.36;616433;230;68573;-63
2023/07/17 06:55:57;;;;;;;;;;;;;;;25.63;68.58;97218.25;616389;230;65112;-64
2023/07/17 06:58:25;;;;;;;;;;;;;;;25.63;69.09;97212.88;616583;230;68836;-65
2023/07/17 07:00:59;;;;;;;;;;;;;;;25.66;69.10;97214.97;616473;230;68722;-64
2023/07/17 07:03:27;;;;;;;;;;;;;;;25.68;69.34;97210.09;616391;230;65196;-63
2023/07/17 07:05:56;;;;;;;;;;;;;;;25.69;69.43;97206.30;616447;230;68852;-64
2023/07/17 07:08:25;;;;;;;;;;;;;;;25.70;69.44;97210.60;616463;227;68884;-64
2023/07/17 07:10:53;;;;;;;;;;;;;;;25.71;69.47;97203.32;616173;230;65080;-63
2023/07/17 07:13:21;;;;;;;;;;;;;;;25.72;69.62;97204.91;615414;230;68902;-64
2023/07/17 07:15:50;;;;;;;;;;;;;;;25.73;69.61;97207.31;613946;230;66351;-62
2023/07/17 07:18:18;;;;;;;;;;;;;;;25.73;69.64;97210.00;613656;230;65210;-65
2023/07/17 07:20:47;;;;;;;;;;;;;;;25.76;69.20;97204.02;613686;231;66346;-61
2023/07/17 07:23:15;;;;;;;;;;;;;;;25.76;69.28;97200.54;613691;229;68318;-64
2023/07/17 07:25:42;;;;;;;;;;;;;;;25.76;69.55;97208.61;613957;230;65097;-64
2023/07/17 07:28:11;;;;;;;;;;;;;;;25.76;69.12;97200.54;613839;230;68798;-63
2023/07/17 07:30:39;;;;;;;;;;;;;;;25.77;68.92;97197.53;613908;230;69800;-62
2023/07/17 07:33:07;;;;;;;;;;;;;;;25.79;68.82;97199.94;613718;231;65072;-62
2023/07/17 07:35:34;;;;;;;;;;;;;;;25.80;68.69;97196.14;613929;228;69552;-61
2023/07/17 07:38:04;;;;;;;;;;;;;;;25.78;68.69;97199.15;613664;231;68544;-60
2023/07/17 07:40:31;;;;;;;;;;;;;;;25.78;68.60;97201.02;613708;231;63053;-60
2023/07/17 07:42:58;;;;;;;;;;;;;;;25.80;68.51;97204.22;613764;229;66601;-60
2023/07/17 07:45:26;;;;;;;;;;;;;;;25.81;68.35;97201.23;613746;230;66760;-60
2023/07/17 07:47:56;;;;;;;;;;;;;;;25.83;68.35;97206.31;613632;231;65073;-60
2023/07/17 07:50:23;;;;;;;;;;;;;;;25.84;68.29;97203.36;613669;231;66412;-60
2023/07/17 07:52:50;;;;;;;;;;;;;;;25.86;68.18;97217.34;613611;231;66742;-60
2023/07/17 07:55:18;;;;;;;;;;;;;;;25.87;67.99;97204.66;613661;231;62855;-59
2023/07/17 07:57:45;;;;;;;;;;;;;;;25.88;67.91;97204.34;613754;231;66705;-62
2023/07/17 08:00:14;;;;;;;;;;;;;;;25.89;67.95;97211.35;613644;231;66578;-63
2023/07/17 08:02:42;;;;;;;;;;;;;;;25.90;68.02;97210.24;613705;231;63033;-62
2023/07/17 08:05:10;;;;;;;;;;;;;;;25.89;68.12;97216.73;613961;230;66565;-63
2023/07/17 08:07:37;;;;;;;;;;;;;;;25.89;68.17;97216.73;613608;230;66697;-62
2023/07/17 08:10:05;;;;;;;;;;;;;;;25.90;68.15;97206.76;613828;230;64988;-63
2023/07/17 08:12:33;;;;;;;;;;;;;;;25.90;68.08;97212.94;613649;230;68504;-62
2023/07/17 08:15:00;;;;;;;;;;;;;;;25.89;67.92;97213.22;612568;231;68442;-65
2023/07/17 08:17:28;;;;;;;;;;;;;;;25.88;67.96;97209.73;612633;231;64816;-66
2023/07/17 08:19:55;;;;;;;;;;;;;;;25.91;67.35;97213.73;612616;231;68298;-66
2023/07/17 08:22:22;;;;;;;;;;;;;;;25.93;66.92;97208.85;612549;231;68424;-65
2023/07/17 08:24:50;;;;;;;;;;;;;;;25.94;66.36;97207.74;612647;231;65121;-62
2023/07/17 08:27:17;;;;;;;;;;;;;;;25.96;66.08;97207.45;612565;231;66251;-63
2023/07/17 08:29:45;;;;;;;;;;;;;;;25.96;65.91;97210.15;612654;231;68615;-62
2023/07/17 08:32:12;;;;;;;;;;;;;;;25.95;65.96;97212.05;612576;231;62936;-63
2023/07/17 08:34:40;;;;;;;;;;;;;;;25.95;65.99;97203.18;612543;231;68373;-62
2023/07/17 08:37:07;;;;;;;;;;;;;;;25.95;65.97;97208.56;612555;231;68422;-62
2023/07/17 08:39:35;;;;;;;;;;;;;;;25.95;65.92;97208.56;612588;229;65771;-63
2023/07/17 08:42:02;;;;;;;;;;;;;;;25.96;65.86;97199.38;612569;231;68711;-63
2023/07/17 08:44:30;;;;;;;;;;;;;;;25.95;65.83;97205.88;612635;231;69035;-62
2023/07/17 08:47:01;;;;;;;;;;;;;;;25.95;65.68;97203.18;612551;231;65039;-62
2023/07/17 08:49:30;;;;;;;;;;;;;;;25.95;65.61;97201.28;612521;231;68843;-63
2023/07/17 08:51:59;;;;;;;;;;;;;;;25.94;65.44;97207.74;612546;231;68765;-64
2023/07/17 08:54:29;;;;;;;;;;;;;;;25.95;65.31;97205.88;612579;231;65184;-66
2023/07/17 08:56:58;;;;;;;;;;;;;;;25.97;65.08;97201.75;612603;231;68672;-64
2023/07/17 08:59:25;;;;;;;;;;;;;;;25.99;64.76;97201.47;612484;231;68666;-62
2023/07/17 09:01:53;;;;;;;;;;;;;;;25.99;64.77;97204.16;612647;231;62704;-62
2023/07/17 09:04:22;;;;;;;;;;;;;;;25.96;64.62;97204.77;612546;231;67405;-62
2023/07/17 09:06:51;;;;;;;;;;;;;;;25.94;64.56;97201.56;612569;231;68770;-62
2023/07/17 09:09:19;;;;;;;;;;;;;;;25.90;64.55;97202.16;612591;231;63014;-62
2023/07/17 09:11:46;;;;;;;;;;;;;;;25.88;64.52;97204.34;612517;231;69004;-62
2023/07/17 09:14:14;;;;;;;;;;;;;;;25.88;64.60;97201.66;612534;231;68748;-62
2023/07/17 09:16:41;;;;;;;;;;;;;;;25.88;64.79;97198.17;612623;231;65163;-62
2023/07/17 09:19:09;;;;;;;;;;;;;;;25.89;64.97;97203.27;612532;231;68762;-65
2023/07/17 09:21:38;;;;;;;;;;;;;;;25.89;65.45;97205.97;612601;231;68664;-64
2023/07/17 09:24:05;;;;;;;;;;;;;;;25.93;65.65;97205.36;612601;230;64944;-65
2023/07/17 09:26:33;;;;;;;;;;;;;;;25.95;65.69;97203.97;612582;231;68731;-65
2023/07/17 09:29:01;;;;;;;;;;;;;;;25.96;65.33;97202.07;612619;229;68485;-67
2023/07/17 09:31:29;;;;;;;;;;;;;;;25.96;64.14;97202.07;612538;231;62867;-64
2023/07/17 09:33:58;;;;;;;;;;;;;;;25.97;63.26;97198.27;612529;231;66747;-62
2023/07/17 09:36:25;;;;;;;;;;;;;;;25.97;63.13;97200.96;612632;231;66561;-61
2023/07/17 09:38:54;;;;;;;;;;;;;;;25.95;63.46;97198.59;612598;231;63189;-62
2023/07/17 09:41:23;;;;;;;;;;;;;;;25.95;63.59;97195.10;612469;231;68854;-62
2023/07/17 09:44:03;;;;;;;;;;;;;;;25.94;63.96;97201.56;612613;231;66719;-62
2023/07/17 09:46:34;;;;;;;;;;;;;;;25.93;64.21;97198.08;612562;231;65106;-61
2023/07/17 09:49:03;;;;;;;;;;;;;;;25.94;64.47;97202.36;612602;231;66708;-61
2023/07/17 09:51:32;;;;;;;;;;;;;;;25.95;64.43;97203.18;612619;231;68448;-68
2023/07/17 09:53:59;;;;;;;;;;;;;;;25.94;64.25;97205.05;612594;231;62930;-68
2023/07/17 09:56:29;;;;;;;;;;;;;;;25.95;63.94;97205.88;612606;231;66709;-68
2023/07/17 09:58:57;;;;;;;;;;;;;;;25.95;63.58;97198.59;612403;231;66693;-65
2023/07/17 10:01:27;;;;;;;;;;;;;;;25.97;63.42;97198.27;612340;231;63045;-66
2023/07/17 10:03:54;;;;;;;;;;;;;;;25.98;63.56;97197.98;612617;231;68864;-66
2023/07/17 10:06:22;;;;;;;;;;;;;;;26.01;64.04;97196.59;612618;231;68699;-66
2023/07/17 10:08:51;;;;;;;;;;;;;;;26.03;64.16;97197.09;612590;231;63082;-66
2023/07/17 10:11:19;;;;;;;;;;;;;;;26.04;63.36;97199.47;612388;231;68850;-66
2023/07/17 10:13:48;;;;;;;;;;;;;;;26.05;62.61;97202.96;612546;231;68718;-68
2023/07/17 10:16:16;;;;;;;;;;;;;;;26.06;62.51;97189.20;612586;231;65716;-64
2023/07/17 10:18:48;;;;;;;;;;;;;;;26.07;62.36;97195.39;612604;231;66383;-64
2023/07/17 10:21:17;;;;;;;;;;;;;;;26.06;62.19;97196.50;612567;231;66649;-65
2023/07/17 10:23:45;;;;;;;;;;;;;;;26.07;61.90;97187.30;612169;231;63018;-64
2023/07/17 10:26:22;;;;;;;;;;;;;;;26.06;61.20;97189.20;612498;231;66909;-64
2023/07/17 10:28:52;;;;;;;;;;;;;;;26.05;60.50;97182.20;612364;231;49311;-66
2023/07/17 10:31:23;;;;;;;;;;;;;;;26.05;60.44;97182.20;612571;229;65108;-65
2023/07/17 10:33:51;;;;;;;;;;;;;;;26.06;60.51;97183.03;612535;231;68017;-65
2023/07/17 10:36:20;;;;;;;;;;;;;;;26.07;60.93;97184.61;612539;231;68892;-65
2023/07/17 10:38:54;;;;;;;;;;;;;;;26.06;61.08;97178.44;612578;231;65069;-65
2023/07/17 10:41:23;;;;;;;;;;;;;;;26.07;61.19;97174.63;612597;231;68556;-66
2023/07/17 10:43:52;;;;;;;;;;;;;;;26.09;61.53;97177.04;612498;231;67394;-64
2023/07/17 10:46:19;;;;;;;;;;;;;;;26.10;61.64;97175.93;612621;231;65172;-62
2023/07/17 10:48:47;;;;;;;;;;;;;;;26.10;61.30;97184.01;612589;231;68597;-64
2023/07/17 10:51:15;;;;;;;;;;;;;;;26.09;61.16;97172.45;612450;231;68704;-64
2023/07/17 10:53:43;;;;;;;;;;;;;;;26.08;61.08;97175.42;612577;231;65010;-64
2023/07/17 10:56:10;;;;;;;;;;;;;;;26.06;61.00;97173.05;612605;231;68764;-64
2023/07/17 10:58:38;;;;;;;;;;;;;;;26.05;60.67;97171.44;612586;229;68767;-64
2023/07/17 11:01:05;;;;;;;;;;;;;;;26.04;60.49;97163.67;612595;231;65014;-64
2023/07/17 11:03:33;;;;;;;;;;;;;;;26.04;60.61;97159.08;612527;231;68813;-65
2023/07/17 11:06:00;;;;;;;;;;;;;;;26.03;60.86;97160.19;612492;231;68385;-63
2023/07/17 11:08:28;;;;;;;;;;;;;;;26.02;60.64;97166.66;612581;231;62944;-63
2023/07/17 11:10:55;;;;;;;;;;;;;;;26.02;60.77;97163.17;612650;231;66538;-64
2023/07/17 11:13:24;;;;;;;;;;;;;;;26.02;60.98;97165.86;612738;228;66914;-64
2023/07/17 11:15:52;;;;;;;;;;;;;;;26.03;61.08;97159.39;615183;229;64781;-64
2023/07/17 11:18:19;;;;;;;;;;;;;;;26.02;61.12;97161.27;615220;230;68615;-63
2023/07/17 11:20:49;;;;;;;;;;;;;;;26.03;61.10;97167.48;615205;230;68555;-63
2023/07/17 11:23:16;;;;;;;;;;;;;;;26.03;61.06;97170.17;615355;230;62883;-64
2023/07/17 11:25:44;;;;;;;;;;;;;;;26.03;61.07;97159.39;615175;230;66522;-65
2023/07/17 11:28:11;;;;;;;;;;;;;;;26.03;61.21;97162.09;615296;230;68865;-65
2023/07/17 11:30:39;;;;;;;;;;;;;;;26.03;61.49;97162.09;617148;228;65068;-66
2023/07/17 11:33:07;;;;;;;;;;;;;;;26.05;61.11;97159.88;619912;228;68256;-65
2023/07/17 11:35:39;;;;;;;;;;;;;;;26.06;61.01;97156.89;622256;228;68505;-64
2023/07/17 11:38:12;;;;;;;;;;;;;;;26.06;60.95;97151.50;622331;228;65105;-64
2023/07/17 11:40:56;;;;;;;;;;;;;;;26.08;61.01;97148.49;622207;228;69045;-64
2023/07/17 11:43:24;;;;;;;;;;;;;;;26.08;60.82;97149.31;622129;226;66549;-64
2023/07/17 11:45:54;;;;;;;;;;;;;;;26.10;60.44;97157.08;622233;228;65691;-63
2023/07/17 11:48:23;;;;;;;;;;;;;;;26.09;59.98;97144.72;622345;228;68525;-64
2023/07/17 11:50:50;;;;;;;;;;;;;;;26.08;59.74;97149.31;621570;228;68722;-67
2023/07/17 11:53:18;;;;;;;;;;;;;;;26.09;59.70;97140.13;622331;228;65087;-66
2023/07/17 11:55:45;;;;;;;;;;;;;;;26.11;58.90;97137.94;622249;228;68767;-67
2023/07/17 11:58:15;;;;;;;;;;;;;;;26.11;58.10;97140.63;622365;228;68688;-66
2023/07/17 12:00:46;;;;;;;;;;;;;;;26.13;57.87;97134.92;622331;226;70394;-66
2023/07/17 12:03:14;;;;;;;;;;;;;;;26.13;57.69;97132.23;622302;228;68875;-66
2023/07/17 12:05:42;;;;;;;;;;;;;;;26.15;57.05;97138.13;622314;228;68775;-66
2023/07/17 12:08:10;;;;;;;;;;;;;;;26.16;56.89;97133.53;622279;228;65047;-66
2023/07/17 12:10:37;;;;;;;;;;;;;;;26.19;57.56;97133.74;622241;228;69978;-66
2023/07/17 12:13:05;;;;;;;;;;;;;;;26.19;56.60;97133.74;622441;227;68762;-66
2023/07/17 12:15:33;;;;;;;;;;;;;;;26.20;56.90;97129.14;622278;228;62984;-66
2023/07/17 12:18:01;;;;;;;;;;;;;;;26.21;56.04;97136.12;619544;228;66656;-66
2023/07/17 12:20:32;;;;;;;;;;;;;;;26.21;55.96;97122.65;619368;225;65886;-66
2023/07/17 12:22:58;;;;;;;;;;;;;;;26.23;56.59;97128.54;621049;228;62893;-67
2023/07/17 12:25:26;;;;;;;;;;;;;;;26.23;56.12;97129.33;619910;228;66358;-67
2023/07/17 12:27:55;;;;;;;;;;;;;;;26.25;56.17;97132.52;622330;228;66703;-67
2023/07/17 12:30:23;;;;;;;;;;;;;;;26.26;55.78;97128.72;619035;226;62679;-66
2023/07/17 12:32:50;;;;;;;;;;;;;;;26.27;55.70;97130.34;621612;228;68554;-66
2023/07/17 12:35:18;;;;;;;;;;;;;;;26.28;55.78;97125.73;622252;228;68473;-66
2023/07/17 12:37:45;;;;;;;;;;;;;;;26.28;56.02;97129.22;622239;228;64964;-66
2023/07/17 12:40:13;;;;;;;;;;;;;;;26.29;56.16;97132.71;621656;228;68450;-64
2023/07/17 12:42:40;;;;;;;;;;;;;;;26.30;56.73;97118.95;615352;230;68701;-67
2023/07/17 12:45:08;;;;;;;;;;;;;;;26.32;56.61;97127.50;615271;230;65027;-67
2023/07/17 12:47:36;;;;;;;;;;;;;;;26.32;56.05;97130.20;615243;230;66249;-67
2023/07/17 12:50:04;;;;;;;;;;;;;;;26.32;56.03;97130.20;615226;230;66472;-67
2023/07/17 12:52:31;;;;;;;;;;;;;;;26.33;55.39;97117.55;615164;230;64968;-67